sensor_id;sensor_type;location;lat;lon;timestamp;temperature;humidity
41922;DHT22;27609;51.002;5.354;2023-06-24T00:00:30;19.90;99.90
41922;DHT22;27609;51.002;5.354;2023-06-24T00:02:56;19.90;99.90
41922;DHT22;27609;51.002;5.354;2023-06-24T00:05:23;19.90;99.90
41922;DHT22;27609;51.002;5.354;2023-06-24T00:07:49;19.80;99.90
41922;DHT22;27609;51.002;5.354;2023-06-24T00:10:15;19.80;99.90
41922;DHT22;27609;51.002;5.354;2023-06-24T00:12:40;19.70;99.90
41922;DHT22;27609;51.002;5.354;2023-06-24T00:15:07;19.70;99.90
41922;DHT22;27609;51.002;5.354;2023-06-24T00:17:37;19.70;99.90
41922;DHT22;27609;51.002;5.354;2023-06-24T00:20:03;19.70;99.90
41922;DHT22;27609;51.002;5.354;2023-06-24T00:22:33;19.70;99.90
41922;DHT22;27609;51.002;5.354;2023-06-24T00:24:59;19.80;99.90
41922;DHT22;27609;51.002;5.354;2023-06-24T00:27:26;19.80;99.90
41922;DHT22;27609;51.002;5.354;2023-06-24T00:29:51;19.80;99.90
41922;DHT22;27609;51.002;5.354;2023-06-24T00:32:17;19.70;99.90
41922;DHT22;27609;51.002;5.354;2023-06-24T00:34:43;19.60;99.90
41922;DHT22;27609;51.002;5.354;2023-06-24T00:37:09;19.50;99.90
41922;DHT22;27609;51.002;5.354;2023-06-24T00:39:35;19.50;99.90
41922;DHT22;27609;51.002;5.354;2023-06-24T00:42:01;19.40;99.90
41922;DHT22;27609;51.002;5.354;2023-06-24T00:44:27;19.40;99.90
41922;DHT22;27609;51.002;5.354;2023-06-24T00:46:54;19.30;99.90
41922;DHT22;27609;51.002;5.354;2023-06-24T00:49:19;19.30;99.90
41922;DHT22;27609;51.002;5.354;2023-06-24T00:51:46;19.20;99.90
41922;DHT22;27609;51.002;5.354;2023-06-24T00:54:19;19.20;99.90
41922;DHT22;27609;51.002;5.354;2023-06-24T00:56:46;19.10;99.90
41922;DHT22;27609;51.002;5.354;2023-06-24T00:59:16;19.10;99.90
41922;DHT22;27609;51.002;5.354;2023-06-24T01:01:42;19.00;99.90
41922;DHT22;27609;51.002;5.354;2023-06-24T01:04:10;18.90;99.90
41922;DHT22;27609;51.002;5.354;2023-06-24T01:06:36;18.90;99.90
41922;DHT22;27609;51.002;5.354;2023-06-24T01:09:06;18.80;99.90
41922;DHT22;27609;51.002;5.354;2023-06-24T01:11:32;18.80;99.90
41922;DHT22;27609;51.002;5.354;2023-06-24T01:13:58;18.80;99.90
41922;DHT22;27609;51.002;5.354;2023-06-24T01:22:06;18.60;99.90
41922;DHT22;27609;51.002;5.354;2023-06-24T01:27:43;18.70;99.90
41922;DHT22;27609;51.002;5.354;2023-06-24T01:32:49;18.60;99.90
41922;DHT22;27609;51.002;5.354;2023-06-24T01:35:19;18.50;99.90
41922;DHT22;27609;51.002;5.354;2023-06-24T01:37:48;18.50;99.90
41922;DHT22;27609;51.002;5.354;2023-06-24T01:40:26;18.40;99.90
41922;DHT22;27609;51.002;5.354;2023-06-24T01:42:52;18.40;99.90
41922;DHT22;27609;51.002;5.354;2023-06-24T01:45:22;18.40;99.90
41922;DHT22;27609;51.002;5.354;2023-06-24T01:47:49;18.40;99.90
41922;DHT22;27609;51.002;5.354;2023-06-24T01:50:22;18.30;99.90
41922;DHT22;27609;51.002;5.354;2023-06-24T01:52:50;18.30;99.90
41922;DHT22;27609;51.002;5.354;2023-06-24T01:55:20;18.30;99.90
41922;DHT22;27609;51.002;5.354;2023-06-24T01:57:46;18.20;99.90
41922;DHT22;27609;51.002;5.354;2023-06-24T02:00:14;18.30;99.90
41922;DHT22;27609;51.002;5.354;2023-06-24T02:02:40;18.30;99.90
41922;DHT22;27609;51.002;5.354;2023-06-24T02:05:07;18.30;99.90
41922;DHT22;27609;51.002;5.354;2023-06-24T02:07:34;18.20;99.90
41922;DHT22;27609;51.002;5.354;2023-06-24T02:10:01;18.10;99.90
41922;DHT22;27609;51.002;5.354;2023-06-24T02:12:29;18.10;99.90
41922;DHT22;27609;51.002;5.354;2023-06-24T02:14:56;18.10;99.90
41922;DHT22;27609;51.002;5.354;2023-06-24T02:17:24;18.00;99.90
41922;DHT22;27609;51.002;5.354;2023-06-24T02:19:51;17.90;99.90
41922;DHT22;27609;51.002;5.354;2023-06-24T02:22:18;17.90;99.90
41922;DHT22;27609;51.002;5.354;2023-06-24T02:24:45;17.80;99.90
41922;DHT22;27609;51.002;5.354;2023-06-24T02:27:11;17.80;99.90
41922;DHT22;27609;51.002;5.354;2023-06-24T02:29:39;17.90;99.90
41922;DHT22;27609;51.002;5.354;2023-06-24T02:32:06;17.80;99.90
41922;DHT22;27609;51.002;5.354;2023-06-24T02:34:32;17.70;99.90
41922;DHT22;27609;51.002;5.354;2023-06-24T02:36:57;17.80;99.90
41922;DHT22;27609;51.002;5.354;2023-06-24T02:39:23;17.70;99.90
41922;DHT22;27609;51.002;5.354;2023-06-24T02:41:49;17.70;99.90
41922;DHT22;27609;51.002;5.354;2023-06-24T02:44:15;17.50;99.90
41922;DHT22;27609;51.002;5.354;2023-06-24T02:46:42;17.50;99.90
41922;DHT22;27609;51.002;5.354;2023-06-24T02:49:10;17.50;99.90
41922;DHT22;27609;51.002;5.354;2023-06-24T02:51:38;17.50;99.90
41922;DHT22;27609;51.002;5.354;2023-06-24T02:54:05;17.50;99.90
41922;DHT22;27609;51.002;5.354;2023-06-24T02:56:31;17.50;99.90
41922;DHT22;27609;51.002;5.354;2023-06-24T02:58:58;17.60;99.90
41922;DHT22;27609;51.002;5.354;2023-06-24T03:01:23;17.50;99.90
41922;DHT22;27609;51.002;5.354;2023-06-24T03:03:53;17.50;99.90
41922;DHT22;27609;51.002;5.354;2023-06-24T03:06:19;17.50;99.90
41922;DHT22;27609;51.002;5.354;2023-06-24T03:08:46;17.30;99.90
41922;DHT22;27609;51.002;5.354;2023-06-24T03:11:13;17.20;99.90
41922;DHT22;27609;51.002;5.354;2023-06-24T03:13:39;17.10;99.90
41922;DHT22;27609;51.002;5.354;2023-06-24T03:16:05;17.10;99.90
41922;DHT22;27609;51.002;5.354;2023-06-24T03:18:31;17.10;99.90
41922;DHT22;27609;51.002;5.354;2023-06-24T03:20:57;17.10;99.90
41922;DHT22;27609;51.002;5.354;2023-06-24T03:23:22;17.20;99.90
41922;DHT22;27609;51.002;5.354;2023-06-24T03:25:48;17.20;99.90
41922;DHT22;27609;51.002;5.354;2023-06-24T03:28:14;17.20;99.90
41922;DHT22;27609;51.002;5.354;2023-06-24T03:30:39;17.20;99.90
41922;DHT22;27609;51.002;5.354;2023-06-24T03:33:05;17.10;99.90
41922;DHT22;27609;51.002;5.354;2023-06-24T03:35:31;17.20;99.90
41922;DHT22;27609;51.002;5.354;2023-06-24T03:37:58;17.20;99.90
41922;DHT22;27609;51.002;5.354;2023-06-24T03:40:24;17.20;99.90
41922;DHT22;27609;51.002;5.354;2023-06-24T03:42:49;17.20;99.90
41922;DHT22;27609;51.002;5.354;2023-06-24T03:45:15;17.20;99.90
41922;DHT22;27609;51.002;5.354;2023-06-24T03:47:41;17.20;99.90
41922;DHT22;27609;51.002;5.354;2023-06-24T03:50:07;17.30;99.90
41922;DHT22;27609;51.002;5.354;2023-06-24T03:52:32;17.20;99.90
41922;DHT22;27609;51.002;5.354;2023-06-24T03:54:58;17.30;99.90
41922;DHT22;27609;51.002;5.354;2023-06-24T03:57:24;17.20;99.90
41922;DHT22;27609;51.002;5.354;2023-06-24T03:59:49;17.20;99.90
41922;DHT22;27609;51.002;5.354;2023-06-24T04:02:15;17.20;99.90
41922;DHT22;27609;51.002;5.354;2023-06-24T04:04:41;17.20;99.90
41922;DHT22;27609;51.002;5.354;2023-06-24T04:07:06;17.20;99.90
41922;DHT22;27609;51.002;5.354;2023-06-24T04:09:35;17.20;99.90
41922;DHT22;27609;51.002;5.354;2023-06-24T04:12:01;17.30;99.90
41922;DHT22;27609;51.002;5.354;2023-06-24T04:14:28;17.20;99.90
41922;DHT22;27609;51.002;5.354;2023-06-24T04:16:54;17.10;99.90
41922;DHT22;27609;51.002;5.354;2023-06-24T04:19:20;17.10;99.90
41922;DHT22;27609;51.002;5.354;2023-06-24T04:21:45;17.10;99.90
41922;DHT22;27609;51.002;5.354;2023-06-24T04:24:11;17.10;99.90
41922;DHT22;27609;51.002;5.354;2023-06-24T04:26:36;17.10;99.90
41922;DHT22;27609;51.002;5.354;2023-06-24T04:29:02;17.10;99.90
41922;DHT22;27609;51.002;5.354;2023-06-24T04:31:28;17.20;99.90
41922;DHT22;27609;51.002;5.354;2023-06-24T04:33:53;17.20;99.90
41922;DHT22;27609;51.002;5.354;2023-06-24T04:36:19;17.20;99.90
41922;DHT22;27609;51.002;5.354;2023-06-24T04:38:45;17.20;99.90
41922;DHT22;27609;51.002;5.354;2023-06-24T04:41:10;17.20;99.90
41922;DHT22;27609;51.002;5.354;2023-06-24T04:43:36;17.20;99.90
41922;DHT22;27609;51.002;5.354;2023-06-24T04:46:02;17.20;99.90
41922;DHT22;27609;51.002;5.354;2023-06-24T04:48:28;17.20;99.90
41922;DHT22;27609;51.002;5.354;2023-06-24T04:50:53;17.10;99.90
41922;DHT22;27609;51.002;5.354;2023-06-24T04:53:21;17.10;99.90
41922;DHT22;27609;51.002;5.354;2023-06-24T04:55:46;17.10;99.90
41922;DHT22;27609;51.002;5.354;2023-06-24T04:58:12;17.10;99.90
41922;DHT22;27609;51.002;5.354;2023-06-24T05:00:38;17.10;99.90
41922;DHT22;27609;51.002;5.354;2023-06-24T05:03:04;17.10;99.90
41922;DHT22;27609;51.002;5.354;2023-06-24T05:05:30;17.10;99.90
41922;DHT22;27609;51.002;5.354;2023-06-24T05:07:55;17.20;99.90
41922;DHT22;27609;51.002;5.354;2023-06-24T05:10:21;17.30;99.90
41922;DHT22;27609;51.002;5.354;2023-06-24T05:12:47;17.40;99.90
41922;DHT22;27609;51.002;5.354;2023-06-24T05:15:12;17.40;99.90
41922;DHT22;27609;51.002;5.354;2023-06-24T05:17:40;17.40;99.90
41922;DHT22;27609;51.002;5.354;2023-06-24T05:20:06;17.50;99.90
41922;DHT22;27609;51.002;5.354;2023-06-24T05:22:32;17.60;99.90
41922;DHT22;27609;51.002;5.354;2023-06-24T05:24:57;17.70;99.90
41922;DHT22;27609;51.002;5.354;2023-06-24T05:27:23;17.80;99.90
41922;DHT22;27609;51.002;5.354;2023-06-24T05:29:49;17.80;99.90
41922;DHT22;27609;51.002;5.354;2023-06-24T05:32:14;17.90;99.90
41922;DHT22;27609;51.002;5.354;2023-06-24T05:34:43;17.90;99.90
41922;DHT22;27609;51.002;5.354;2023-06-24T05:37:08;17.90;99.90
41922;DHT22;27609;51.002;5.354;2023-06-24T05:39:34;18.00;99.90
41922;DHT22;27609;51.002;5.354;2023-06-24T05:42:00;18.00;99.90
41922;DHT22;27609;51.002;5.354;2023-06-24T05:44:25;18.10;99.90
41922;DHT22;27609;51.002;5.354;2023-06-24T05:46:51;18.10;99.90
41922;DHT22;27609;51.002;5.354;2023-06-24T05:49:17;18.00;99.90
41922;DHT22;27609;51.002;5.354;2023-06-24T05:51:42;18.10;99.90
41922;DHT22;27609;51.002;5.354;2023-06-24T05:54:08;18.20;99.90
41922;DHT22;27609;51.002;5.354;2023-06-24T05:56:34;18.20;99.90
41922;DHT22;27609;51.002;5.354;2023-06-24T05:58:59;18.20;99.90
41922;DHT22;27609;51.002;5.354;2023-06-24T06:01:25;18.30;99.90
41922;DHT22;27609;51.002;5.354;2023-06-24T06:03:51;18.40;99.90
41922;DHT22;27609;51.002;5.354;2023-06-24T06:06:17;18.50;99.90
41922;DHT22;27609;51.002;5.354;2023-06-24T06:08:43;18.60;99.90
41922;DHT22;27609;51.002;5.354;2023-06-24T06:11:08;18.70;99.90
41922;DHT22;27609;51.002;5.354;2023-06-24T06:13:34;18.80;99.90
41922;DHT22;27609;51.002;5.354;2023-06-24T06:16:00;18.90;99.90
41922;DHT22;27609;51.002;5.354;2023-06-24T06:18:25;19.00;99.90
41922;DHT22;27609;51.002;5.354;2023-06-24T06:20:51;19.30;99.90
41922;DHT22;27609;51.002;5.354;2023-06-24T06:23:17;19.90;99.90
41922;DHT22;27609;51.002;5.354;2023-06-24T06:25:43;20.80;99.90
41922;DHT22;27609;51.002;5.354;2023-06-24T06:28:09;20.90;99.90
41922;DHT22;27609;51.002;5.354;2023-06-24T06:30:34;21.00;99.90
41922;DHT22;27609;51.002;5.354;2023-06-24T06:33:00;20.90;99.90
41922;DHT22;27609;51.002;5.354;2023-06-24T06:35:26;21.30;99.90
41922;DHT22;27609;51.002;5.354;2023-06-24T06:37:51;21.40;99.90
41922;DHT22;27609;51.002;5.354;2023-06-24T06:40:20;22.50;99.90
41922;DHT22;27609;51.002;5.354;2023-06-24T06:42:46;23.40;99.90
41922;DHT22;27609;51.002;5.354;2023-06-24T06:45:11;23.50;99.90
41922;DHT22;27609;51.002;5.354;2023-06-24T06:47:37;23.30;99.90
41922;DHT22;27609;51.002;5.354;2023-06-24T06:50:03;23.20;99.90
41922;DHT22;27609;51.002;5.354;2023-06-24T06:52:29;23.60;99.90
41922;DHT22;27609;51.002;5.354;2023-06-24T06:54:55;24.20;99.90
41922;DHT22;27609;51.002;5.354;2023-06-24T06:57:20;24.30;99.90
41922;DHT22;27609;51.002;5.354;2023-06-24T06:59:46;24.20;99.90
41922;DHT22;27609;51.002;5.354;2023-06-24T07:02:12;24.10;99.90
41922;DHT22;27609;51.002;5.354;2023-06-24T07:04:37;24.50;99.90
41922;DHT22;27609;51.002;5.354;2023-06-24T07:07:03;25.70;99.90
41922;DHT22;27609;51.002;5.354;2023-06-24T07:09:29;25.70;99.90
41922;DHT22;27609;51.002;5.354;2023-06-24T07:11:55;25.40;99.90
41922;DHT22;27609;51.002;5.354;2023-06-24T07:14:20;25.10;99.90
41922;DHT22;27609;51.002;5.354;2023-06-24T07:16:46;24.70;99.90
41922;DHT22;27609;51.002;5.354;2023-06-24T07:19:12;24.60;99.90
41922;DHT22;27609;51.002;5.354;2023-06-24T07:21:38;24.40;99.90
41922;DHT22;27609;51.002;5.354;2023-06-24T07:24:04;25.10;99.90
41922;DHT22;27609;51.002;5.354;2023-06-24T07:26:30;24.60;99.90
41922;DHT22;27609;51.002;5.354;2023-06-24T07:28:59;24.50;99.90
41922;DHT22;27609;51.002;5.354;2023-06-24T07:31:25;25.00;99.90
41922;DHT22;27609;51.002;5.354;2023-06-24T07:33:51;25.20;99.90
41922;DHT22;27609;51.002;5.354;2023-06-24T07:36:16;25.30;99.90
41922;DHT22;27609;51.002;5.354;2023-06-24T07:38:42;25.90;99.90
41922;DHT22;27609;51.002;5.354;2023-06-24T07:41:08;26.40;99.90
41922;DHT22;27609;51.002;5.354;2023-06-24T07:43:34;26.50;99.90
41922;DHT22;27609;51.002;5.354;2023-06-24T07:45:59;26.20;99.90
41922;DHT22;27609;51.002;5.354;2023-06-24T07:48:25;27.50;99.90
41922;DHT22;27609;51.002;5.354;2023-06-24T07:50:51;27.70;99.90
41922;DHT22;27609;51.002;5.354;2023-06-24T07:53:16;28.50;99.90
41922;DHT22;27609;51.002;5.354;2023-06-24T07:55:42;27.50;99.90
41922;DHT22;27609;51.002;5.354;2023-06-24T07:58:07;27.00;99.90
41922;DHT22;27609;51.002;5.354;2023-06-24T08:00:33;26.90;99.90
41922;DHT22;27609;51.002;5.354;2023-06-24T08:02:59;27.70;99.90
41922;DHT22;27609;51.002;5.354;2023-06-24T08:05:25;27.60;99.90
41922;DHT22;27609;51.002;5.354;2023-06-24T08:07:51;29.20;99.90
41922;DHT22;27609;51.002;5.354;2023-06-24T08:10:17;28.90;99.90
41922;DHT22;27609;51.002;5.354;2023-06-24T08:12:43;30.50;97.70
41922;DHT22;27609;51.002;5.354;2023-06-24T08:15:09;31.30;95.40
41922;DHT22;27609;51.002;5.354;2023-06-24T08:17:35;32.80;92.20
41922;DHT22;27609;51.002;5.354;2023-06-24T08:20:04;31.60;89.90
41922;DHT22;27609;51.002;5.354;2023-06-24T08:22:30;30.50;91.60
41922;DHT22;27609;51.002;5.354;2023-06-24T08:24:56;29.80;91.90
41922;DHT22;27609;51.002;5.354;2023-06-24T08:27:21;29.90;91.50
41922;DHT22;27609;51.002;5.354;2023-06-24T08:29:47;30.10;91.60
41922;DHT22;27609;51.002;5.354;2023-06-24T08:32:13;29.40;90.30
41922;DHT22;27609;51.002;5.354;2023-06-24T08:34:39;29.20;90.80
41922;DHT22;27609;51.002;5.354;2023-06-24T08:37:04;29.20;91.20
41922;DHT22;27609;51.002;5.354;2023-06-24T08:39:30;29.10;91.60
41922;DHT22;27609;51.002;5.354;2023-06-24T08:41:56;30.70;87.40
41922;DHT22;27609;51.002;5.354;2023-06-24T08:44:21;29.60;90.10
41922;DHT22;27609;51.002;5.354;2023-06-24T08:46:48;29.20;90.70
41922;DHT22;27609;51.002;5.354;2023-06-24T08:49:34;29.30;90.50
41922;DHT22;27609;51.002;5.354;2023-06-24T08:52:13;30.70;89.30
41922;DHT22;27609;51.002;5.354;2023-06-24T08:54:40;31.30;82.50
41922;DHT22;27609;51.002;5.354;2023-06-24T08:57:07;30.70;83.30
41922;DHT22;27609;51.002;5.354;2023-06-24T08:59:34;30.50;83.60
41922;DHT22;27609;51.002;5.354;2023-06-24T09:02:00;29.90;82.60
41922;DHT22;27609;51.002;5.354;2023-06-24T09:04:26;31.60;85.30
41922;DHT22;27609;51.002;5.354;2023-06-24T09:06:52;34.90;80.50
41922;DHT22;27609;51.002;5.354;2023-06-24T09:09:22;36.10;74.80
41922;DHT22;27609;51.002;5.354;2023-06-24T09:11:55;35.40;71.90
41922;DHT22;27609;51.002;5.354;2023-06-24T09:14:21;35.00;71.50
41922;DHT22;27609;51.002;5.354;2023-06-24T09:17:00;34.10;70.20
41922;DHT22;27609;51.002;5.354;2023-06-24T09:19:28;32.40;76.40
41922;DHT22;27609;51.002;5.354;2023-06-24T09:22:02;31.50;74.90
41922;DHT22;27609;51.002;5.354;2023-06-24T09:24:31;30.80;76.40
41922;DHT22;27609;51.002;5.354;2023-06-24T09:26:57;31.60;75.10
41922;DHT22;27609;51.002;5.354;2023-06-24T09:29:26;34.40;72.50
41922;DHT22;27609;51.002;5.354;2023-06-24T09:31:55;34.90;72.00
41922;DHT22;27609;51.002;5.354;2023-06-24T09:34:22;33.70;71.10
41922;DHT22;27609;51.002;5.354;2023-06-24T09:36:52;33.90;71.10
41922;DHT22;27609;51.002;5.354;2023-06-24T09:39:19;34.10;71.40
41922;DHT22;27609;51.002;5.354;2023-06-24T09:41:50;35.70;68.30
41922;DHT22;27609;51.002;5.354;2023-06-24T09:44:16;36.50;67.10
41922;DHT22;27609;51.002;5.354;2023-06-24T09:46:45;34.10;67.30
41922;DHT22;27609;51.002;5.354;2023-06-24T09:49:11;35.10;65.30
41922;DHT22;27609;51.002;5.354;2023-06-24T09:51:38;33.90;67.00
41922;DHT22;27609;51.002;5.354;2023-06-24T09:54:08;33.00;66.80
41922;DHT22;27609;51.002;5.354;2023-06-24T09:56:39;32.60;66.70
41922;DHT22;27609;51.002;5.354;2023-06-24T09:59:07;31.80;67.90
41922;DHT22;27609;51.002;5.354;2023-06-24T10:01:37;32.40;67.10
41922;DHT22;27609;51.002;5.354;2023-06-24T10:04:04;33.90;64.40
41922;DHT22;27609;51.002;5.354;2023-06-24T10:06:32;31.20;66.60
41922;DHT22;27609;51.002;5.354;2023-06-24T10:08:58;31.30;72.10
41922;DHT22;27609;51.002;5.354;2023-06-24T10:11:24;31.30;70.80
41922;DHT22;27609;51.002;5.354;2023-06-24T10:13:50;30.60;71.20
41922;DHT22;27609;51.002;5.354;2023-06-24T10:16:16;31.60;69.30
41922;DHT22;27609;51.002;5.354;2023-06-24T10:18:44;32.00;69.30
41922;DHT22;27609;51.002;5.354;2023-06-24T10:21:10;33.30;66.80
41922;DHT22;27609;51.002;5.354;2023-06-24T10:23:40;32.90;64.50
41922;DHT22;27609;51.002;5.354;2023-06-24T10:37:10;34.30;63.40
41922;DHT22;27609;51.002;5.354;2023-06-24T10:39:49;33.70;67.80
41922;DHT22;27609;51.002;5.354;2023-06-24T10:45:14;34.00;64.20
41922;DHT22;27609;51.002;5.354;2023-06-24T10:47:42;34.60;65.70
41922;DHT22;27609;51.002;5.354;2023-06-24T10:50:09;36.50;62.70
41922;DHT22;27609;51.002;5.354;2023-06-24T10:52:40;36.70;61.90
41922;DHT22;27609;51.002;5.354;2023-06-24T10:55:06;35.20;60.30
41922;DHT22;27609;51.002;5.354;2023-06-24T10:57:32;34.40;64.40
41922;DHT22;27609;51.002;5.354;2023-06-24T10:59:58;34.40;62.00
41922;DHT22;27609;51.002;5.354;2023-06-24T11:02:25;33.60;65.20
41922;DHT22;27609;51.002;5.354;2023-06-24T11:04:56;36.80;63.00
41922;DHT22;27609;51.002;5.354;2023-06-24T11:07:28;37.00;57.40
41922;DHT22;27609;51.002;5.354;2023-06-24T11:09:57;36.90;59.10
41922;DHT22;27609;51.002;5.354;2023-06-24T11:12:31;39.80;56.50
41922;DHT22;27609;51.002;5.354;2023-06-24T11:15:04;39.20;54.90
41922;DHT22;27609;51.002;5.354;2023-06-24T11:17:31;38.40;55.60
41922;DHT22;27609;51.002;5.354;2023-06-24T11:19:58;36.30;60.00
41922;DHT22;27609;51.002;5.354;2023-06-24T11:22:24;37.90;56.40
41922;DHT22;27609;51.002;5.354;2023-06-24T11:24:50;36.40;59.60
41922;DHT22;27609;51.002;5.354;2023-06-24T11:27:19;39.60;56.60
41922;DHT22;27609;51.002;5.354;2023-06-24T11:29:48;38.70;55.70
41922;DHT22;27609;51.002;5.354;2023-06-24T11:32:16;36.30;57.70
41922;DHT22;27609;51.002;5.354;2023-06-24T11:34:42;35.60;55.70
41922;DHT22;27609;51.002;5.354;2023-06-24T11:37:16;36.30;58.90
41922;DHT22;27609;51.002;5.354;2023-06-24T11:39:42;40.30;56.70
41922;DHT22;27609;51.002;5.354;2023-06-24T11:42:09;42.00;53.50
41922;DHT22;27609;51.002;5.354;2023-06-24T11:44:36;38.90;54.10
41922;DHT22;27609;51.002;5.354;2023-06-24T11:47:06;37.20;56.10
41922;DHT22;27609;51.002;5.354;2023-06-24T11:49:47;38.90;54.20
41922;DHT22;27609;51.002;5.354;2023-06-24T11:52:12;35.10;57.80
41922;DHT22;27609;51.002;5.354;2023-06-24T11:54:41;34.20;59.60
41922;DHT22;27609;51.002;5.354;2023-06-24T11:57:08;34.90;60.20
41922;DHT22;27609;51.002;5.354;2023-06-24T11:59:34;35.20;58.40
41922;DHT22;27609;51.002;5.354;2023-06-24T12:01:59;34.30;58.10
41922;DHT22;27609;51.002;5.354;2023-06-24T12:04:32;37.10;58.40
41922;DHT22;27609;51.002;5.354;2023-06-24T12:06:59;39.10;54.00
41922;DHT22;27609;51.002;5.354;2023-06-24T12:09:25;38.30;56.40
41922;DHT22;27609;51.002;5.354;2023-06-24T12:11:51;39.50;54.10
41922;DHT22;27609;51.002;5.354;2023-06-24T12:14:17;38.20;53.20
41922;DHT22;27609;51.002;5.354;2023-06-24T12:16:43;36.30;56.00
41922;DHT22;27609;51.002;5.354;2023-06-24T12:19:09;36.50;55.70
41922;DHT22;27609;51.002;5.354;2023-06-24T12:21:35;39.00;54.80
41922;DHT22;27609;51.002;5.354;2023-06-24T12:24:01;38.00;53.70
41922;DHT22;27609;51.002;5.354;2023-06-24T12:26:27;39.30;52.50
41922;DHT22;27609;51.002;5.354;2023-06-24T12:28:56;41.40;54.50
41922;DHT22;27609;51.002;5.354;2023-06-24T12:31:23;42.90;51.60
41922;DHT22;27609;51.002;5.354;2023-06-24T12:33:50;39.60;51.80
41922;DHT22;27609;51.002;5.354;2023-06-24T12:36:15;38.70;52.00
41922;DHT22;27609;51.002;5.354;2023-06-24T12:38:41;37.40;53.80
41922;DHT22;27609;51.002;5.354;2023-06-24T12:41:07;37.80;51.80
41922;DHT22;27609;51.002;5.354;2023-06-24T12:43:33;35.40;53.90
41922;DHT22;27609;51.002;5.354;2023-06-24T12:45:58;34.80;52.90
41922;DHT22;27609;51.002;5.354;2023-06-24T12:48:24;37.10;52.00
41922;DHT22;27609;51.002;5.354;2023-06-24T12:50:50;37.00;52.70
41922;DHT22;27609;51.002;5.354;2023-06-24T12:53:19;35.70;53.20
41922;DHT22;27609;51.002;5.354;2023-06-24T12:55:44;35.20;53.60
41922;DHT22;27609;51.002;5.354;2023-06-24T12:58:10;34.60;57.50
41922;DHT22;27609;51.002;5.354;2023-06-24T13:00:36;35.70;55.60
41922;DHT22;27609;51.002;5.354;2023-06-24T13:03:01;35.00;57.00
41922;DHT22;27609;51.002;5.354;2023-06-24T13:05:27;35.80;56.80
41922;DHT22;27609;51.002;5.354;2023-06-24T13:07:53;37.90;55.60
41922;DHT22;27609;51.002;5.354;2023-06-24T13:10:18;39.00;52.70
41922;DHT22;27609;51.002;5.354;2023-06-24T13:12:44;37.80;57.50
41922;DHT22;27609;51.002;5.354;2023-06-24T13:15:10;38.50;53.70
41922;DHT22;27609;51.002;5.354;2023-06-24T13:17:36;39.40;52.90
41922;DHT22;27609;51.002;5.354;2023-06-24T13:20:02;40.60;50.00
41922;DHT22;27609;51.002;5.354;2023-06-24T13:22:31;38.80;51.70
41922;DHT22;27609;51.002;5.354;2023-06-24T13:24:57;35.70;50.80
41922;DHT22;27609;51.002;5.354;2023-06-24T13:27:22;34.20;54.30
41922;DHT22;27609;51.002;5.354;2023-06-24T13:29:48;34.10;53.90
41922;DHT22;27609;51.002;5.354;2023-06-24T13:32:14;32.50;55.20
41922;DHT22;27609;51.002;5.354;2023-06-24T13:34:40;31.60;58.30
41922;DHT22;27609;51.002;5.354;2023-06-24T13:37:05;31.20;59.10
41922;DHT22;27609;51.002;5.354;2023-06-24T13:39:31;31.50;59.50
41922;DHT22;27609;51.002;5.354;2023-06-24T13:41:57;32.50;58.60
41922;DHT22;27609;51.002;5.354;2023-06-24T13:44:23;32.70;57.20
41922;DHT22;27609;51.002;5.354;2023-06-24T13:46:49;32.10;58.80
41922;DHT22;27609;51.002;5.354;2023-06-24T13:49:15;32.30;57.10
41922;DHT22;27609;51.002;5.354;2023-06-24T13:51:42;31.70;57.80
41922;DHT22;27609;51.002;5.354;2023-06-24T13:54:08;31.40;58.70
41922;DHT22;27609;51.002;5.354;2023-06-24T13:56:33;31.80;58.40
41922;DHT22;27609;51.002;5.354;2023-06-24T13:58:59;32.80;57.50
41922;DHT22;27609;51.002;5.354;2023-06-24T14:01:25;32.40;59.90
41922;DHT22;27609;51.002;5.354;2023-06-24T14:03:54;31.90;60.00
41922;DHT22;27609;51.002;5.354;2023-06-24T14:06:21;32.00;59.80
41922;DHT22;27609;51.002;5.354;2023-06-24T14:08:47;31.60;60.40
41922;DHT22;27609;51.002;5.354;2023-06-24T14:11:13;31.60;58.90
41922;DHT22;27609;51.002;5.354;2023-06-24T14:13:39;31.50;60.50
41922;DHT22;27609;51.002;5.354;2023-06-24T14:16:05;31.20;61.60
41922;DHT22;27609;51.002;5.354;2023-06-24T14:18:32;31.20;60.00
41922;DHT22;27609;51.002;5.354;2023-06-24T14:21:02;30.80;62.20
41922;DHT22;27609;51.002;5.354;2023-06-24T14:23:28;30.90;59.50
41922;DHT22;27609;51.002;5.354;2023-06-24T14:25:54;30.80;60.90
41922;DHT22;27609;51.002;5.354;2023-06-24T14:28:20;30.90;58.90
41922;DHT22;27609;51.002;5.354;2023-06-24T14:30:46;30.90;59.60
41922;DHT22;27609;51.002;5.354;2023-06-24T14:33:12;30.50;60.00
41922;DHT22;27609;51.002;5.354;2023-06-24T14:35:39;30.30;60.50
41922;DHT22;27609;51.002;5.354;2023-06-24T14:38:04;30.50;61.20
41922;DHT22;27609;51.002;5.354;2023-06-24T14:40:31;31.00;61.50
41922;DHT22;27609;51.002;5.354;2023-06-24T14:42:57;30.60;59.00
41922;DHT22;27609;51.002;5.354;2023-06-24T14:45:23;30.20;59.40
41922;DHT22;27609;51.002;5.354;2023-06-24T14:47:48;30.30;61.60
41922;DHT22;27609;51.002;5.354;2023-06-24T14:50:14;30.40;58.80
41922;DHT22;27609;51.002;5.354;2023-06-24T14:52:40;30.40;60.30
41922;DHT22;27609;51.002;5.354;2023-06-24T14:55:06;30.10;61.70
41922;DHT22;27609;51.002;5.354;2023-06-24T14:57:32;30.30;61.40
41922;DHT22;27609;51.002;5.354;2023-06-24T14:59:57;30.60;64.30
41922;DHT22;27609;51.002;5.354;2023-06-24T15:02:23;30.90;63.40
41922;DHT22;27609;51.002;5.354;2023-06-24T15:04:51;30.60;63.80
41922;DHT22;27609;51.002;5.354;2023-06-24T15:07:16;30.30;63.10
41922;DHT22;27609;51.002;5.354;2023-06-24T15:09:42;30.40;63.80
41922;DHT22;27609;51.002;5.354;2023-06-24T15:12:08;30.60;65.00
41922;DHT22;27609;51.002;5.354;2023-06-24T15:14:34;30.80;63.30
41922;DHT22;27609;51.002;5.354;2023-06-24T15:17:00;30.20;65.00
41922;DHT22;27609;51.002;5.354;2023-06-24T15:19:26;30.30;65.70
41922;DHT22;27609;51.002;5.354;2023-06-24T15:21:51;30.30;65.10
41922;DHT22;27609;51.002;5.354;2023-06-24T15:24:17;30.00;64.60
41922;DHT22;27609;51.002;5.354;2023-06-24T15:26:42;30.20;66.20
41922;DHT22;27609;51.002;5.354;2023-06-24T15:29:08;30.10;65.60
41922;DHT22;27609;51.002;5.354;2023-06-24T15:31:34;29.80;67.50
41922;DHT22;27609;51.002;5.354;2023-06-24T15:33:59;29.70;66.60
41922;DHT22;27609;51.002;5.354;2023-06-24T15:36:25;29.90;67.00
41922;DHT22;27609;51.002;5.354;2023-06-24T15:38:53;29.90;67.40
41922;DHT22;27609;51.002;5.354;2023-06-24T15:41:19;29.50;66.50
41922;DHT22;27609;51.002;5.354;2023-06-24T15:43:45;29.70;68.20
41922;DHT22;27609;51.002;5.354;2023-06-24T15:46:10;29.80;68.20
41922;DHT22;27609;51.002;5.354;2023-06-24T15:48:36;29.80;66.40
41922;DHT22;27609;51.002;5.354;2023-06-24T15:51:04;29.50;66.10